Pagrindinis puslapis
METAR-TAF:

METAR-TAF

Oro uostai :

Niamėjus, Nigeris

platuma: 13-29N, ilguma: 002-10E, Aukštis: 223 m

Dabartinis oras

Ataskaita buvo paskelbta 36 minutes, ne 23:00 UTC
Vėjas 3 kt iš Šiaurės/Šiaurės Rytų
Temperatūra 30°C
Drėgmė 10%
Slėgis 1012 hPa
Matomumas: 8000 m

METAR: DRRN 062300Z 03003KT 8000 NSC 30/M05 Q1012 NOSIG

Laikas: 00:36 (23:36 UTC)

Prognozė

Ataskaita buvo paskelbta 6 valandos ir 36 minutes, ne 17:00 UTC
Prognozė galioja nuo 06 metu 18 UTC su 07 metu 24 UTC
Vėjas 8 kt iš Šiaurės Rytų
Matomumas: 6000 m
Laikinai
nuo 06 metu 18 UTC su 06 metu 20 UTC
Matomumas: 3500 m
dulkės
Laikinai
nuo 07 metu 08 UTC su 07 metu 12 UTC
Vėjas 18 kt iš Rytų/Pietryčių
Matomumas: 3000 m
Dulkes pustymas

TAF: DRRN 061700Z 0618/0724 04008KT 6000 NSC TEMPO 0618/0620 3500 DU TEMPO 0708/0712 12018KT 3000 BLDU

Orai ataskaitas ir orų prognozės (METAR, TAF).

turimą stotys yra geltonos ir raudonos taškus žemėlapyje.

Perkelti pele per norėdami pamatyti stoties vardą.

Tada spustelėkite, norėdami matyti oro stebėjimo ir prognozės.

Norėdami pakeisti žemėlapį: spustelėkite ant žalios mygtukų su juodo kryžiaus žemyn,; žalią mygtuką su brūkšneliu, jei norite nutolinti; arba žalių rodyklių gretimoms žemėlapius.


METAR-TAF: